METAR Data
IDs: Format: Raw Decoded Include TAF

Data at: 2222 UTC 02 Aug 2021

LGTS 022150Z VRB03KT CAVOK 26/20 Q1011 NOSIG